Time;durP1;ratioP1;P1;durP2;ratioP2;P2;SDS_P1;SDS_P2;PMS_P1;PMS_P2;Temp;Humidity;BMP_temperature;BMP_pressure;BME280_temperature;BME280_humidity;BME280_pressure;Samples;Min_cycle;Max_cycle;Signal;HPM_P1;HPM_P2
2023/04/06 00:00:36;;;;;;;24.25;16.80;;;;;;;0.78;91.95;101842.03;5052857;28;20031;-84
2023/04/06 00:03:01;;;;;;;22.25;15.90;;;;;;;0.76;91.95;101841.22;5052834;28;20115;-84
2023/04/06 00:05:27;;;;;;;25.30;17.02;;;;;;;0.76;92.45;101840.38;5053049;28;20104;-80
2023/04/06 00:07:54;;;;;;;25.95;16.60;;;;;;;0.74;92.48;101837.00;5068410;28;20051;-85
2023/04/06 00:10:19;;;;;;;26.70;16.80;;;;;;;0.50;93.16;101807.50;5052899;28;20032;-87
2023/04/06 00:12:45;;;;;;;24.40;16.63;;;;;;;0.39;93.13;101794.00;5053161;28;20021;-80
2023/04/06 00:15:10;;;;;;;27.40;16.77;;;;;;;0.56;94.03;101828.63;5052893;28;20049;-74
2023/04/06 00:17:36;;;;;;;23.42;16.20;;;;;;;0.53;92.81;101822.72;5052875;28;20021;-75
2023/04/06 00:20:01;;;;;;;23.77;16.70;;;;;;;0.58;93.91;101834.53;5052837;28;20108;-76
2023/04/06 00:22:26;;;;;;;23.75;16.02;;;;;;;0.51;93.80;101821.91;5050977;28;20493;-74
2023/04/06 00:24:52;;;;;;;21.95;15.75;;;;;;;0.49;94.46;101833.75;5052601;28;20029;-75
2023/04/06 00:27:17;;;;;;;24.05;15.85;;;;;;;0.49;94.19;101831.19;5052633;28;20058;-76
2023/04/06 00:29:44;;;;;;;23.92;16.13;;;;;;;0.49;94.71;101832.06;5052108;28;20044;-76
2023/04/06 00:32:09;;;;;;;24.77;16.98;;;;;;;0.49;94.51;101816.81;5052446;28;20105;-75
2023/04/06 00:34:35;;;;;;;25.73;17.65;;;;;;;0.49;94.85;101811.75;5052253;28;20469;-76
2023/04/06 00:37:00;;;;;;;26.05;16.83;;;;;;;0.45;95.10;101802.44;5052385;28;20097;-75
2023/04/06 00:39:26;;;;;;;22.27;15.75;;;;;;;0.53;93.53;101810.88;5052255;28;20102;-76
2023/04/06 00:41:52;;;;;;;26.20;17.20;;;;;;;0.54;93.80;101806.63;5052302;28;20542;-79
2023/04/06 00:44:18;;;;;;;23.60;16.38;;;;;;;0.40;94.04;101785.53;5052242;28;20029;-76
2023/04/06 00:46:44;;;;;;;27.52;17.38;;;;;;;0.27;94.67;101764.41;5051998;28;20048;-77
2023/04/06 00:49:10;;;;;;;22.25;16.13;;;;;;;0.52;94.78;101799.00;5067594;28;20187;-76
2023/04/06 00:51:35;;;;;;;24.88;16.88;;;;;;;0.52;94.43;101801.56;5052394;28;20158;-77
2023/04/06 00:54:00;;;;;;;25.40;15.77;;;;;;;0.48;94.34;101789.69;5052430;28;20428;-77
2023/04/06 00:56:26;;;;;;;25.60;16.27;;;;;;;0.48;94.41;101783.78;5052345;28;20032;-79
2023/04/06 00:58:52;;;;;;;25.85;17.02;;;;;;;0.50;94.79;101782.94;5052404;28;20039;-83
2023/04/06 01:01:17;;;;;;;22.70;15.77;;;;;;;0.42;93.94;101766.03;5051995;28;20028;-79
2023/04/06 01:03:44;;;;;;;24.88;16.35;;;;;;;0.60;91.74;101782.88;5051953;28;20033;-80
2023/04/06 01:06:09;;;;;;;25.27;16.48;;;;;;;0.39;93.23;101749.09;5052348;28;20029;-85
2023/04/06 01:08:36;;;;;;;24.77;17.35;;;;;;;0.59;93.57;101776.94;5052268;28;20029;-83
2023/04/06 01:11:01;;;;;;;22.05;16.23;;;;;;;0.62;93.46;101779.47;5052262;28;20036;-81
2023/04/06 01:13:27;;;;;;;22.00;16.08;;;;;;;0.64;93.64;101767.59;5052413;28;20071;-82
2023/04/06 01:15:53;;;;;;;25.15;16.25;;;;;;;0.66;94.04;101770.13;5052144;28;20036;-82
2023/04/06 01:18:18;;;;;;;23.50;15.70;;;;;;;0.61;93.30;101754.06;5052311;28;20033;-79
2023/04/06 01:20:44;;;;;;;23.65;16.20;;;;;;;0.76;91.25;101766.66;5052695;28;20021;-79
2023/04/06 01:23:09;;;;;;;25.02;15.98;;;;;;;0.70;92.33;101746.38;5050931;28;20095;-86
2023/04/06 01:25:34;;;;;;;21.88;15.20;;;;;;;0.83;90.76;101761.50;5053045;28;20355;-87
2023/04/06 01:28:00;;;;;;;22.92;16.10;;;;;;;0.90;91.70;101766.56;5052155;28;20529;-86
2023/04/06 01:30:26;;;;;;;21.40;14.77;;;;;;;0.95;90.57;101765.66;5067350;28;20021;-89
2023/04/06 01:32:51;;;;;;;22.27;16.45;;;;;;;1.01;90.21;101762.22;5052123;28;20028;-87
2023/04/06 01:35:18;;;;;;;20.85;15.00;;;;;;;1.00;89.15;101750.38;5066700;28;20430;-86
2023/04/06 01:37:44;;;;;;;23.25;15.60;;;;;;;1.12;89.43;101750.25;5051902;28;20078;-90
2023/04/06 01:40:10;;;;;;;22.13;14.68;;;;;;;1.18;89.46;101747.66;5052494;28;20029;-89
2023/04/06 01:42:35;;;;;;;22.20;15.13;;;;;;;1.26;87.10;101747.56;5055249;28;20033;-88
2023/04/06 01:45:01;;;;;;;21.92;13.80;;;;;;;1.32;86.29;101748.34;5055480;28;20706;-89
2023/04/06 01:47:26;;;;;;;21.35;14.18;;;;;;;1.21;86.29;101719.63;5055757;28;20032;-90
2023/04/06 01:49:51;;;;;;;24.55;14.48;;;;;;;1.40;88.02;101745.75;5055448;28;20037;-89
2023/04/06 01:52:17;;;;;;;22.77;14.90;;;;;;;1.26;87.24;101712.78;5055571;28;20025;-88
2023/04/06 01:54:43;;;;;;;21.67;14.45;;;;;;;1.44;88.74;101749.94;5055585;28;20035;-83
2023/04/06 01:57:09;;;;;;;22.63;15.10;;;;;;;1.21;87.21;101690.81;5055418;28;20033;-81
2023/04/06 01:59:34;;;;;;;23.50;15.38;;;;;;;1.54;87.54;101730.31;5055471;28;20079;-81
2023/04/06 02:02:00;;;;;;;20.75;14.88;;;;;;;1.57;88.26;101730.25;5053309;28;20482;-83
2023/04/06 02:04:25;;;;;;;23.77;15.25;;;;;;;1.59;89.00;101726.03;5055306;28;20385;-87
2023/04/06 02:06:51;;;;;;;24.10;15.60;;;;;;;1.50;88.78;101705.75;5055396;28;20021;-79
2023/04/06 02:09:16;;;;;;;24.33;16.08;;;;;;;1.60;89.36;101720.06;5055257;28;20045;-78
2023/04/06 02:11:41;;;;;;;24.40;15.38;;;;;;;1.51;88.81;101698.09;5054980;28;20090;-81
2023/04/06 02:14:07;;;;;;;23.33;15.10;;;;;;;1.62;88.79;101715.78;5055213;28;20024;-85
2023/04/06 02:16:32;;;;;;;24.77;15.55;;;;;;;1.66;88.17;101717.44;5069823;28;20135;-82
2023/04/06 02:18:57;;;;;;;23.70;15.60;;;;;;;1.67;87.53;101712.34;5055046;28;20052;-87
2023/04/06 02:21:23;;;;;;;23.27;15.73;;;;;;;1.70;86.72;101701.28;5054951;28;20474;-83
2023/04/06 02:23:49;;;;;;;22.23;15.18;;;;;;;1.75;87.54;101703.75;5070003;28;20128;-85
2023/04/06 02:26:14;;;;;;;24.77;16.02;;;;;;;1.75;86.83;101685.94;5055154;28;20067;-81
2023/04/06 02:28:40;;;;;;;26.65;17.33;;;;;;;1.79;86.89;101703.72;5054983;28;20409;-85
2023/04/06 02:31:05;;;;;;;23.90;16.13;;;;;;;1.78;85.31;101688.47;5054714;28;20032;-88
2023/04/06 02:33:31;;;;;;;22.50;16.02;;;;;;;1.88;86.03;101695.13;5054849;28;20040;-84
2023/04/06 02:35:56;;;;;;;24.50;16.67;;;;;;;1.91;86.03;101692.53;5054755;28;20025;-87
2023/04/06 02:38:21;;;;;;;27.70;16.13;;;;;;;1.92;84.87;101687.41;5054491;28;20056;-80
2023/04/06 02:40:47;;;;;;;23.80;16.25;;;;;;;1.95;84.63;101686.50;5054454;28;20048;-89
2023/04/06 02:43:12;;;;;;;25.23;17.67;;;;;;;1.97;84.50;101683.09;5054631;28;20058;-82
2023/04/06 02:45:37;;;;;;;25.83;16.88;;;;;;;2.00;84.15;101685.59;5054534;28;20028;-79
2023/04/06 02:48:03;;;;;;;24.90;16.50;;;;;;;2.05;83.11;101674.47;5054406;28;20029;-88
2023/04/06 02:50:28;;;;;;;23.08;15.82;;;;;;;2.12;83.08;101676.09;5054691;28;20111;-87
2023/04/06 02:52:54;;;;;;;25.70;16.65;;;;;;;2.11;82.10;101665.06;5052907;28;20029;-85
2023/04/06 02:55:19;;;;;;;23.75;15.98;;;;;;;2.20;81.81;101669.19;5054431;28;20040;-89
2023/04/06 02:57:45;;;;;;;28.80;16.83;;;;;;;2.22;82.58;101667.44;5052326;28;20037;-88
2023/04/06 03:00:11;;;;;;;27.83;17.42;;;;;;;2.07;82.31;101637.97;5054550;28;20040;-90
2023/04/06 03:02:37;;;;;;;22.40;16.52;;;;;;;2.17;82.30;101646.31;5054052;28;20565;-87
2023/04/06 03:05:03;;;;;;;27.58;18.55;;;;;;;2.24;82.72;101650.41;5054148;28;20120;-86
2023/04/06 03:07:28;;;;;;;28.73;18.02;;;;;;;2.33;81.90;101659.63;5054044;28;20113;-85
2023/04/06 03:09:54;;;;;;;26.13;18.05;;;;;;;2.36;83.38;101664.66;5068714;28;20131;-88
2023/04/06 03:12:19;;;;;;;29.65;18.00;;;;;;;2.00;83.19;101605.78;5068974;28;20071;-86
2023/04/06 03:14:45;;;;;;;26.58;17.48;;;;;;;2.26;82.81;101641.03;5053879;28;20029;-86
2023/04/06 03:17:10;;;;;;;27.70;18.73;;;;;;;2.41;83.14;101665.47;5068522;28;20033;-86
2023/04/06 03:19:36;;;;;;;27.48;17.90;;;;;;;2.41;82.48;101656.09;5053725;28;20474;-80
2023/04/06 03:22:01;;;;;;;27.23;18.33;;;;;;;2.40;82.33;101656.97;5053556;28;20039;-85
2023/04/06 03:24:27;;;;;;;26.23;18.00;;;;;;;2.41;82.42;101650.16;5053753;28;20033;-89
2023/04/06 03:26:52;;;;;;;29.35;19.23;;;;;;;2.41;84.12;101645.06;5053772;28;20478;-90
2023/04/06 03:29:17;;;;;;;30.58;19.50;;;;;;;2.25;83.15;101626.63;5053776;28;20074;-88
2023/04/06 03:31:43;;;;;;;27.13;18.60;;;;;;;2.42;83.28;101647.59;5053357;28;20108;-86
2023/04/06 03:34:08;;;;;;;26.80;18.83;;;;;;;1.91;83.47;101563.47;5068441;28;20029;-88
2023/04/06 03:36:34;;;;;;;26.60;19.65;;;;;;;2.39;84.40;101647.66;5053384;28;20025;-83
2023/04/06 03:39:00;;;;;;;26.08;18.20;;;;;;;2.38;84.58;101645.13;5053491;28;20056;-87
2023/04/06 03:41:26;;;;;;;28.92;19.75;;;;;;;2.21;84.65;101623.28;5053609;28;20029;-89
2023/04/06 03:43:51;;;;;;;29.50;19.95;;;;;;;2.35;84.83;101640.91;5053303;28;20243;-84
2023/04/06 03:46:16;;;;;;;27.00;18.30;;;;;;;2.20;84.89;101624.16;5053368;28;20018;-87
2023/04/06 03:48:42;;;;;;;31.30;20.17;;;;;;;2.33;84.42;101640.09;5053365;28;20025;-85
2023/04/06 03:51:07;;;;;;;29.55;20.17;;;;;;;2.32;84.05;101640.97;5053030;28;20083;-86
2023/04/06 03:53:33;;;;;;;29.85;20.13;;;;;;;2.29;84.61;101639.31;5053133;28;20447;-83
2023/04/06 03:55:58;;;;;;;28.55;20.45;;;;;;;2.25;85.24;101637.66;5053105;28;20021;-90
2023/04/06 03:58:23;;;;;;;27.40;20.17;;;;;;;2.25;83.86;101636.81;5053099;28;20060;-86
2023/04/06 04:00:48;;;;;;;29.65;20.13;;;;;;;2.06;84.18;101615.88;5053186;28;20104;-82
2023/04/06 04:03:14;;;;;;;30.13;20.15;;;;;;;2.18;84.96;101636.09;5052545;28;20086;-80
2023/04/06 04:05:39;;;;;;;28.98;20.65;;;;;;;2.16;85.46;101637.78;5050727;28;20352;-78
2023/04/06 04:08:05;;;;;;;29.58;20.92;;;;;;;2.17;85.16;101633.56;5053005;28;20579;-84
2023/04/06 04:10:30;;;;;;;32.40;20.63;;;;;;;2.14;85.36;101631.88;5052811;28;20032;-86
2023/04/06 04:12:55;;;;;;;32.83;21.08;;;;;;;1.88;85.13;101583.06;5052848;28;20021;-85
2023/04/06 04:15:21;;;;;;;30.92;20.05;;;;;;;2.19;85.16;101640.31;5053068;28;20086;-88
2023/04/06 04:17:48;;;;;;;29.15;20.95;;;;;;;2.16;85.03;101626.75;5052886;28;20024;-80
2023/04/06 04:20:14;;;;;;;28.83;21.13;;;;;;;2.21;85.10;101636.03;5052877;28;20021;-83
2023/04/06 04:22:40;;;;;;;27.85;20.15;;;;;;;2.17;85.67;101633.56;5053268;28;20082;-76
2023/04/06 04:25:06;;;;;;;32.38;21.15;;;;;;;2.06;85.84;101609.94;5052707;28;20025;-74
2023/04/06 04:27:31;;;;;;;28.50;20.05;;;;;;;2.24;85.34;101640.22;5052617;28;20013;-75
2023/04/06 04:29:56;;;;;;;33.38;20.27;;;;;;;2.22;86.09;101635.16;5052784;28;20025;-77
2023/04/06 04:32:22;;;;;;;27.83;20.88;;;;;;;2.18;86.05;101627.59;5052361;28;20147;-75
2023/04/06 04:34:47;;;;;;;31.92;21.92;;;;;;;1.95;86.13;101595.66;5052574;28;20029;-75
2023/04/06 04:37:12;;;;;;;30.98;21.70;;;;;;;2.20;86.18;101631.81;5052521;28;20501;-76
2023/04/06 04:39:38;;;;;;;32.90;22.15;;;;;;;2.21;85.86;101641.13;5052440;28;20407;-76
2023/04/06 04:42:03;;;;;;;32.13;23.10;;;;;;;2.11;86.16;101616.66;5052159;28;20082;-78
2023/04/06 04:44:28;;;;;;;31.52;21.70;;;;;;;2.18;85.78;101636.09;5052871;28;20048;-82
2023/04/06 04:46:54;;;;;;;30.48;20.85;;;;;;;1.97;85.36;101593.94;5052539;28;20036;-77
2023/04/06 04:49:19;;;;;;;32.30;21.73;;;;;;;2.20;85.82;101628.41;5052422;28;20556;-76
2023/04/06 04:51:44;;;;;;;31.13;21.25;;;;;;;2.21;85.23;101622.44;5050473;28;20033;-76
2023/04/06 04:54:10;;;;;;;31.80;20.85;;;;;;;2.23;85.44;101624.09;5052415;28;20398;-77
2023/04/06 04:56:35;;;;;;;32.40;21.58;;;;;;;2.25;84.98;101626.63;5052399;28;20031;-76
2023/04/06 04:59:00;;;;;;;30.55;21.70;;;;;;;2.17;84.90;101603.00;5052433;28;20044;-75
2023/04/06 05:01:26;;;;;;;29.38;20.83;;;;;;;2.36;85.80;101629.88;5052215;28;20043;-76
2023/04/06 05:03:51;;;;;;;31.15;21.10;;;;;;;2.43;85.11;101631.41;5052177;28;20039;-76
2023/04/06 05:06:18;;;;;;;30.10;20.83;;;;;;;2.35;84.21;101605.22;5052210;28;20017;-77
2023/04/06 05:08:44;;;;;;;29.60;21.80;;;;;;;2.52;84.41;101625.34;5052192;28;20029;-76
2023/04/06 05:11:09;;;;;;;32.75;21.60;;;;;;;2.56;84.29;101627.81;5052350;28;20017;-76
2023/04/06 05:13:35;;;;;;;28.85;19.63;;;;;;;2.38;84.58;101597.53;5052238;28;20040;-83
2023/04/06 05:16:00;;;;;;;29.30;20.48;;;;;;;2.64;83.90;101630.22;5053159;28;20021;-84
2023/04/06 05:18:26;;;;;;;29.10;20.35;;;;;;;2.56;84.03;101606.59;5056145;28;20123;-83
2023/04/06 05:20:51;;;;;;;31.92;22.10;;;;;;;2.73;84.02;101629.22;5056432;28;20025;-89
2023/04/06 05:23:18;;;;;;;27.83;20.15;;;;;;;2.78;82.91;101625.72;5070700;28;20490;-87
2023/04/06 05:25:43;;;;;;;31.55;20.42;;;;;;;2.83;83.38;101628.19;5056265;28;20063;-88
2023/04/06 05:28:09;;;;;;;29.38;20.50;;;;;;;2.87;83.09;101622.19;5055990;28;20119;-85
2023/04/06 05:30:35;;;;;;;27.23;19.85;;;;;;;2.75;82.82;101589.22;5056258;28;20074;-90
2023/04/06 05:33:01;;;;;;;31.98;19.85;;;;;;;2.87;81.87;101601.78;5056286;28;20032;-89
2023/04/06 05:35:26;;;;;;;28.73;19.52;;;;;;;3.05;81.29;101619.28;5071064;28;20037;-90
2023/04/06 05:37:51;;;;;;;27.23;19.95;;;;;;;3.12;80.72;101620.00;5055775;28;20083;-84
2023/04/06 05:40:17;;;;;;;32.67;20.83;;;;;;;3.09;80.46;101604.75;5056032;28;20065;-87
2023/04/06 05:42:42;;;;;;;30.10;21.35;;;;;;;3.13;80.55;101602.09;5055762;28;20083;-85
2023/04/06 05:45:10;;;;;;;31.10;20.02;;;;;;;3.19;80.10;101601.13;5055760;28;20033;-83
2023/04/06 05:47:37;;;;;;;29.30;20.73;;;;;;;3.31;79.93;101610.25;5055770;28;20099;-85
2023/04/06 05:50:03;;;;;;;30.52;19.90;;;;;;;3.26;80.08;101597.59;5055531;28;20021;-89
2023/04/06 05:52:28;;;;;;;28.92;19.95;;;;;;;3.32;79.45;101597.47;5055734;28;20140;-84
2023/04/06 05:54:54;;;;;;;29.65;19.45;;;;;;;3.22;78.93;101565.34;5055715;28;20024;-91
2023/04/06 05:57:19;;;;;;;27.45;19.27;;;;;;;3.54;79.43;101615.75;5055316;28;20032;-87
2023/04/06 05:59:44;;;;;;;27.50;19.45;;;;;;;3.61;79.01;101613.88;5055272;28;20036;-85
2023/04/06 06:02:10;;;;;;;31.05;19.70;;;;;;;3.64;78.85;101608.72;5055259;28;20514;-82
2023/04/06 06:04:35;;;;;;;27.95;19.85;;;;;;;3.61;78.12;101594.28;5055074;28;20052;-83
2023/04/06 06:07:01;;;;;;;30.67;19.08;;;;;;;3.54;78.51;101574.00;5055207;28;20027;-83
2023/04/06 06:09:26;;;;;;;28.33;19.42;;;;;;;3.84;78.82;101614.22;5069879;28;20082;-82
2023/04/06 06:11:52;;;;;;;27.80;19.13;;;;;;;3.74;78.27;101580.38;5054938;28;20489;-86
2023/04/06 06:14:17;;;;;;;26.02;18.85;;;;;;;3.68;77.32;101560.09;5054875;28;20029;-83
2023/04/06 06:16:42;;;;;;;28.13;19.48;;;;;;;4.06;76.96;101612.03;5054860;28;20490;-86
2023/04/06 06:19:08;;;;;;;28.77;18.30;;;;;;;3.72;77.37;101561.69;5054685;28;20044;-85
2023/04/06 06:21:33;;;;;;;27.45;18.23;;;;;;;4.20;77.21;101619.34;5037169;28;20072;-85
2023/04/06 06:23:58;;;;;;;29.48;19.08;;;;;;;4.28;76.85;101620.84;5054745;28;20032;-86
2023/04/06 06:26:24;;;;;;;29.90;19.10;;;;;;;4.14;76.23;101583.72;5054622;28;20053;-85
2023/04/06 06:28:49;;;;;;;29.27;18.40;;;;;;;4.47;75.62;101615.28;5054496;28;20028;-84
2023/04/06 06:31:16;;;;;;;27.40;19.65;;;;;;;4.50;75.50;101615.19;5054618;28;20079;-86
2023/04/06 06:33:41;;;;;;;25.00;18.25;;;;;;;4.60;75.28;101620.03;5054681;28;20112;-84
2023/04/06 06:36:06;;;;;;;26.60;19.38;;;;;;;4.52;75.94;101585.31;5054741;28;20104;-85
2023/04/06 06:38:32;;;;;;;29.83;19.90;;;;;;;4.75;74.84;101621.38;5054450;28;20041;-85
2023/04/06 06:40:57;;;;;;;28.17;19.15;;;;;;;4.79;73.79;101617.84;5054536;28;20021;-83
2023/04/06 06:43:23;;;;;;;26.55;18.48;;;;;;;4.87;74.51;101620.22;5054296;28;20482;-85
2023/04/06 06:45:48;;;;;;;27.50;17.98;;;;;;;4.95;73.96;101620.84;5055269;28;20025;-83
2023/04/06 06:48:13;;;;;;;27.63;18.77;;;;;;;4.99;73.64;101616.47;5054279;28;20028;-78
2023/04/06 06:50:39;;;;;;;28.02;18.90;;;;;;;4.73;73.10;101568.59;5054374;28;20409;-83
2023/04/06 06:53:04;;;;;;;26.35;18.40;;;;;;;5.07;75.24;101612.84;5053199;28;20099;-75
2023/04/06 06:55:29;;;;;;;27.58;18.60;;;;;;;4.86;73.79;101573.31;5055263;28;20098;-77
2023/04/06 06:57:55;;;;;;;30.67;19.25;;;;;;;5.16;73.35;101607.47;5054950;28;20398;-77
2023/04/06 07:00:20;;;;;;;28.52;19.10;;;;;;;5.04;73.26;101589.06;5054390;28;20032;-78
2023/04/06 07:02:47;;;;;;;27.10;18.88;;;;;;;5.07;73.89;101582.13;5054045;28;20025;-77
2023/04/06 07:05:12;;;;;;;30.85;18.92;;;;;;;5.12;71.97;101597.38;5054058;28;20029;-79
2023/04/06 07:07:38;;;;;;;28.10;19.35;;;;;;;5.10;72.81;101587.13;5054141;28;20025;-79
2023/04/06 07:10:04;;;;;;;27.25;18.35;;;;;;;5.27;73.15;101606.31;5054308;28;20033;-77
2023/04/06 07:12:29;;;;;;;27.23;18.48;;;;;;;5.17;72.93;101586.09;5053998;28;20017;-79
2023/04/06 07:14:55;;;;;;;28.63;19.67;;;;;;;5.37;73.57;101600.88;5052401;28;20457;-77
2023/04/06 07:17:20;;;;;;;28.65;18.35;;;;;;;5.34;72.26;101595.88;5054012;28;20108;-77
2023/04/06 07:19:45;;;;;;;25.95;17.40;;;;;;;5.42;72.72;101601.59;5053673;28;20138;-78
2023/04/06 07:22:11;;;;;;;29.95;18.67;;;;;;;5.48;73.57;101601.41;5053959;28;20036;-76
2023/04/06 07:24:37;;;;;;;29.10;18.83;;;;;;;5.54;72.50;101597.84;5053920;28;20031;-79
2023/04/06 07:27:02;;;;;;;26.42;19.48;;;;;;;5.56;72.68;101592.66;5054021;28;20025;-82
2023/04/06 07:29:28;;;;;;;26.00;18.52;;;;;;;5.64;72.69;101596.69;5052621;28;20021;-78
2023/04/06 07:31:54;;;;;;;27.92;18.98;;;;;;;5.47;72.85;101557.91;5053803;28;20106;-80
2023/04/06 07:34:20;;;;;;;28.02;18.17;;;;;;;5.83;72.06;101601.25;5053446;28;20025;-77
2023/04/06 07:36:45;;;;;;;27.48;19.50;;;;;;;5.92;72.51;101601.00;5053883;28;20040;-78
2023/04/06 07:39:10;;;;;;;24.90;18.73;;;;;;;5.89;72.20;101575.41;5052649;28;20041;-82
2023/04/06 07:41:36;;;;;;;29.40;18.35;;;;;;;6.10;72.32;101599.59;5053585;28;20379;-80
2023/04/06 07:44:02;;;;;;;26.35;17.60;;;;;;;6.11;71.52;101576.44;5053673;28;20079;-76
2023/04/06 07:46:28;;;;;;;26.30;18.05;;;;;;;6.08;70.75;101560.31;5068534;28;20429;-83
2023/04/06 07:48:53;;;;;;;28.90;17.70;;;;;;;6.25;70.93;101570.84;5052050;28;20040;-84
2023/04/06 07:51:18;;;;;;;24.58;16.85;;;;;;;6.14;68.90;101549.88;5053020;28;20032;-77
2023/04/06 07:53:45;;;;;;;27.13;18.52;;;;;;;6.30;68.34;101569.00;5053431;28;20099;-79
2023/04/06 07:56:11;;;;;;;30.17;18.67;;;;;;;6.43;69.41;101585.66;5053525;28;20047;-86
2023/04/06 07:58:37;;;;;;;27.48;17.95;;;;;;;6.62;68.45;101593.56;5053288;28;20123;-76
2023/04/06 08:01:02;;;;;;;24.88;18.08;;;;;;;6.68;68.38;101582.22;5053232;28;20100;-84
2023/04/06 08:03:28;;;;;;;24.52;16.48;;;;;;;6.79;67.22;101588.69;5053072;28;20052;-77
2023/04/06 08:05:53;;;;;;;28.20;16.77;;;;;;;6.85;67.25;101592.75;5052790;28;20051;-84
2023/04/06 08:08:20;;;;;;;27.05;18.50;;;;;;;6.90;67.32;101593.44;5050822;28;20112;-81
2023/04/06 08:10:46;;;;;;;28.90;18.27;;;;;;;6.91;66.88;101595.13;5053018;28;20060;-83
2023/04/06 08:13:12;;;;;;;24.45;16.95;;;;;;;7.00;67.08;101591.38;5053113;28;20059;-77
2023/04/06 08:15:37;;;;;;;31.73;18.58;;;;;;;7.11;68.45;101592.66;5053056;28;20052;-74
2023/04/06 08:18:02;;;;;;;27.60;18.02;;;;;;;7.04;66.72;101573.22;5051106;28;20067;-84
2023/04/06 08:20:28;;;;;;;27.73;17.88;;;;;;;7.06;67.01;101561.16;5050734;28;20047;-81
2023/04/06 08:22:53;;;;;;;24.88;17.02;;;;;;;7.29;65.97;101595.47;5052683;28;20033;-77
2023/04/06 08:25:19;;;;;;;23.70;16.60;;;;;;;7.28;64.88;101592.06;5052992;28;20063;-80
2023/04/06 08:27:44;;;;;;;26.23;16.45;;;;;;;7.37;66.72;101586.53;5052671;28;20020;-82
2023/04/06 08:30:10;;;;;;;24.52;16.17;;;;;;;7.42;64.11;101594.94;5052820;28;20029;-77
2023/04/06 08:32:35;;;;;;;26.85;17.35;;;;;;;7.43;64.11;101590.63;5053013;28;20033;-73
2023/04/06 08:35:01;;;;;;;25.73;16.67;;;;;;;7.48;64.65;101597.28;5052678;28;20108;-73
2023/04/06 08:37:26;;;;;;;25.65;15.95;;;;;;;7.49;64.16;101590.41;5052639;28;20029;-73
2023/04/06 08:39:52;;;;;;;24.33;16.30;;;;;;;7.67;65.54;101599.13;5067932;28;20053;-73
2023/04/06 08:42:20;;;;;;;22.73;15.27;;;;;;;7.83;63.02;101602.78;5052632;28;20052;-75
2023/04/06 08:44:48;;;;;;;25.30;16.63;;;;;;;7.90;63.01;101599.09;5052664;28;20095;-77
2023/04/06 08:47:13;;;;;;;24.50;16.90;;;;;;;8.04;64.23;101607.09;5052478;28;20017;-74
2023/04/06 08:49:39;;;;;;;23.95;16.52;;;;;;;8.14;62.53;101602.41;5050631;28;20393;-74
2023/04/06 08:52:07;;;;;;;25.10;16.23;;;;;;;8.07;63.37;101575.28;5052396;28;20056;-74
2023/04/06 08:54:34;;;;;;;27.17;16.73;;;;;;;8.28;62.72;101600.13;5052497;28;20021;-74
2023/04/06 08:57:00;;;;;;;25.42;16.38;;;;;;;8.32;63.11;101600.81;5052708;28;20032;-73
2023/04/06 08:59:26;;;;;;;25.60;16.00;;;;;;;8.35;62.49;101605.88;5052435;28;20021;-77
2023/04/06 09:01:54;;;;;;;25.17;16.80;;;;;;;8.32;61.94;101595.69;5067043;28;20084;-75
2023/04/06 09:04:20;;;;;;;29.52;18.52;;;;;;;8.40;63.80;101603.13;5052416;28;20075;-75
2023/04/06 09:06:45;;;;;;;25.52;15.93;;;;;;;8.45;63.57;101584.00;5052141;28;20098;-76
2023/04/06 09:09:11;;;;;;;24.17;15.80;;;;;;;8.65;64.15;101600.34;5052288;28;20104;-87
2023/04/06 09:11:43;;;;;;;22.38;15.75;;;;;;;8.63;63.11;101579.81;5052570;28;20025;-88
2023/04/06 09:14:09;;;;;;;27.98;16.08;;;;;;;8.81;64.17;101591.06;5052249;28;20036;-87
2023/04/06 09:16:43;;;;;;;25.33;15.85;;;;;;;9.03;65.10;101606.41;5052640;28;20017;-87
2023/04/06 09:19:09;;;;;;;23.63;15.75;;;;;;;9.12;63.84;101608.59;5052545;28;20033;-87
2023/04/06 09:21:35;;;;;;;22.55;15.80;;;;;;;9.16;64.05;101590.34;5052837;28;20490;-85
2023/04/06 09:24:02;;;;;;;25.45;16.75;;;;;;;9.25;64.09;101607.16;5052571;28;20367;-89
2023/04/06 09:26:28;;;;;;;26.67;16.67;;;;;;;9.23;64.49;101595.22;5067226;28;20061;-88
2023/04/06 09:28:55;;;;;;;25.17;17.20;;;;;;;9.41;65.09;101600.38;5052231;28;20102;-86
2023/04/06 09:31:29;;;;;;;23.33;16.30;;;;;;;9.26;63.62;101559.03;5050910;28;20032;-85
2023/04/06 09:33:56;;;;;;;27.15;16.30;;;;;;;9.49;64.04;101598.28;5051254;28;20029;-87
2023/04/06 09:36:38;;;;;;;23.40;16.95;;;;;;;9.26;64.83;101562.44;5052757;28;20060;-89
2023/04/06 09:39:04;;;;;;;;;;;;;;;9.55;65.47;101597.19;5052379;28;20048;-83
2023/04/06 09:41:33;;;;;;;24.67;16.10;;;;;;;9.43;66.15;101598.56;5051951;28;19912;-86
2023/04/06 09:44:06;;;;;;;21.65;14.80;;;;;;;9.34;67.29;101574.94;5051836;28;20090;-82
2023/04/06 09:46:37;;;;;;;22.17;15.52;;;;;;;9.46;67.27;101592.44;5051746;28;20493;-86
2023/04/06 09:49:03;;;;;;;23.17;15.38;;;;;;;9.51;67.74;101599.97;5052130;28;20021;-76
2023/04/06 09:51:35;;;;;;;23.13;15.02;;;;;;;9.40;69.31;101567.78;5051772;28;20060;-80
2023/04/06 09:54:03;;;;;;;20.15;15.13;;;;;;;9.64;69.89;101590.78;5051839;28;20021;-77
2023/04/06 09:56:37;;;;;;;22.85;15.43;;;;;;;9.81;72.67;101583.03;5051826;28;20033;-81
2023/04/06 09:59:12;;;;;;;23.50;15.45;;;;;;;10.02;71.45;101588.91;5051636;28;20033;-80
2023/04/06 10:01:39;;;;;;;22.90;14.95;;;;;;;10.04;70.40;101594.84;5052134;28;20025;-79
2023/04/06 10:04:16;;;;;;;20.35;14.88;;;;;;;9.89;71.46;101570.63;5055528;28;20029;-83
2023/04/06 10:06:44;;;;;;;19.77;13.10;;;;;;;9.94;70.55;101594.47;5054277;28;20051;-77
2023/04/06 10:09:09;;;;;;;17.20;12.70;;;;;;;9.74;71.78;101599.75;5056141;28;20029;-78
2023/04/06 10:11:35;;;;;;;20.23;13.18;;;;;;;9.51;73.38;101602.53;5055458;28;20025;-76
2023/04/06 10:14:00;;;;;;;18.77;12.07;;;;;;;9.40;75.35;101601.28;5055107;28;20037;-80
2023/04/06 10:16:27;;;;;;;20.48;14.05;;;;;;;9.42;77.57;101599.47;5055025;28;20086;-74
2023/04/06 10:18:58;;;;;;;21.48;14.02;;;;;;;9.29;76.65;101600.94;5055284;28;20036;-82
2023/04/06 10:21:27;;;;;;;19.35;13.75;;;;;;;9.34;78.69;101605.88;5055400;28;20047;-85
2023/04/06 10:23:59;;;;;;;18.98;13.63;;;;;;;9.40;79.36;101609.03;5055121;28;20078;-76
2023/04/06 10:26:24;;;;;;;18.55;12.45;;;;;;;9.39;78.59;101609.94;5055153;28;20032;-76
2023/04/06 10:28:50;;;;;;;21.02;12.35;;;;;;;9.24;79.39;101605.44;5055493;28;20021;-81
2023/04/06 10:31:25;;;;;;;18.73;11.35;;;;;;;9.27;81.04;101614.81;5055687;28;20040;-83
2023/04/06 10:33:58;;;;;;;16.58;11.35;;;;;;;9.10;80.77;101587.22;5055063;28;20052;-73
2023/04/06 10:36:33;;;;;;;16.23;11.18;;;;;;;9.16;79.77;101610.13;5071140;28;20048;-78
2023/04/06 10:39:04;;;;;;;15.98;10.52;;;;;;;9.14;81.39;101606.78;5055215;28;20040;-75
2023/04/06 10:41:34;;;;;;;17.60;11.60;;;;;;;9.10;82.30;101603.50;5070717;28;20033;-81
2023/04/06 10:44:01;;;;;;;15.45;9.75;;;;;;;9.01;81.85;101611.63;5055412;28;20036;-77
2023/04/06 10:46:30;;;;;;;13.90;9.93;;;;;;;8.90;82.64;101604.38;5055244;28;20065;-73
2023/04/06 10:48:56;;;;;;;15.40;10.48;;;;;;;8.82;84.55;101605.63;5054887;28;20036;-76
2023/04/06 10:51:27;;;;;;;17.92;9.93;;;;;;;8.71;83.39;101600.91;5054510;28;20036;-77
2023/04/06 10:53:54;;;;;;;12.90;8.88;;;;;;;8.42;85.16;101576.41;5054398;28;20025;-78
2023/04/06 10:56:22;;;;;;;15.05;9.88;;;;;;;8.48;86.97;101595.94;5054545;28;20028;-78
2023/04/06 10:58:49;;;;;;;16.60;9.70;;;;;;;8.53;88.20;101602.53;5054756;28;20028;-79
2023/04/06 11:01:20;;;;;;;14.63;10.02;;;;;;;8.47;88.15;101596.81;5055772;28;20024;-79
2023/04/06 11:03:48;;;;;;;15.02;9.43;;;;;;;8.34;87.75;101604.16;5055090;28;20062;-76
2023/04/06 11:06:22;;;;;;;15.32;11.07;;;;;;;8.30;89.58;101598.31;5054044;28;20086;-75
2023/04/06 11:08:48;;;;;;;13.90;9.75;;;;;;;8.02;89.54;101542.00;5054592;28;20039;-75
2023/04/06 11:11:17;;;;;;;16.23;9.10;;;;;;;8.10;89.44;101557.13;5054337;28;20021;-75